Time;durP1;ratioP1;P1;durP2;ratioP2;P2;SDS_P1;SDS_P2;PMS_P1;PMS_P2;Temp;Humidity;BMP_temperature;BMP_pressure;BME280_temperature;BME280_humidity;BME280_pressure;Samples;Min_cycle;Max_cycle;Signal;HPM_P1;HPM_P2
2022/10/30 00:00:27;;;;;;;23.08;4.38;;;;;;;23.74;100.00;97908.81;5004797;28;20036;-92
2022/10/30 00:02:53;;;;;;;25.25;4.90;;;;;;;24.12;100.00;97902.38;5003929;28;20186;-92
2022/10/30 00:05:20;;;;;;;24.58;5.05;;;;;;;24.18;100.00;97896.53;5005127;28;20064;-91
2022/10/30 00:07:47;;;;;;;19.55;4.60;;;;;;;23.40;100.00;97899.91;5014666;28;20049;-92
2022/10/30 00:10:13;;;;;;;22.60;4.55;;;;;;;24.33;100.00;97894.50;5000446;28;20034;-93
2022/10/30 00:12:43;;;;;;;27.27;4.90;;;;;;;23.54;100.00;97894.38;5002545;28;20036;-92
2022/10/30 00:15:09;;;;;;;22.33;4.25;;;;;;;23.31;100.00;97901.41;5005424;28;20033;-93
2022/10/30 00:17:35;;;;;;;22.17;4.70;;;;;;;24.14;100.00;97891.59;5002150;28;20144;-93
2022/10/30 00:20:01;;;;;;;23.27;5.63;;;;;;;23.51;100.00;97897.28;5006241;28;20189;-92
2022/10/30 00:22:27;;;;;;;19.45;4.43;;;;;;;23.83;100.00;97901.94;5010311;28;20223;-92
2022/10/30 00:24:52;;;;;;;21.98;4.97;;;;;;;23.21;100.00;97889.78;5003265;28;20033;-92
2022/10/30 00:27:17;;;;;;;19.75;4.32;;;;;;;24.06;100.00;97894.00;5001961;28;20080;-92
2022/10/30 00:29:43;;;;;;;22.58;4.75;;;;;;;23.42;100.00;97897.97;5006564;28;20753;-91
2022/10/30 00:32:08;;;;;;;25.02;5.15;;;;;;;22.58;100.00;97903.19;5000713;28;20399;-93
2022/10/30 00:34:34;;;;;;;25.13;4.97;;;;;;;23.29;100.00;97900.69;5004622;28;20029;-93
2022/10/30 00:36:59;;;;;;;17.38;4.75;;;;;;;23.54;100.00;97891.72;5007866;28;20033;-92
2022/10/30 00:39:25;;;;;;;20.58;4.78;;;;;;;23.79;100.00;97885.34;5008966;28;20311;-93
2022/10/30 00:41:50;;;;;;;21.15;4.15;;;;;;;24.51;100.00;97896.66;5006009;28;20406;-92
2022/10/30 00:44:36;;;;;;;23.30;4.80;;;;;;;24.22;100.00;97901.63;5003588;28;20165;-92
2022/10/30 00:47:09;;;;;;;23.95;4.25;;;;;;;23.16;100.00;97890.13;5003901;28;20117;-92
2022/10/30 00:49:37;;;;;;;19.25;4.00;;;;;;;23.26;100.00;97884.97;5005412;28;20120;-93
2022/10/30 00:52:05;;;;;;;17.67;4.45;;;;;;;24.51;100.00;97886.84;5003732;28;20068;-92
2022/10/30 00:54:33;;;;;;;17.08;4.18;;;;;;;24.36;100.00;97880.91;5019930;28;20061;-92
2022/10/30 00:57:00;;;;;;;21.58;4.93;;;;;;;22.91;100.00;97886.59;5002507;28;20612;-92
2022/10/30 00:59:29;;;;;;;17.48;4.20;;;;;;;23.76;100.00;97898.91;5000619;28;20045;-93
2022/10/30 01:01:55;;;;;;;18.27;4.53;;;;;;;23.79;100.00;97893.34;5006733;28;20073;-93
2022/10/30 01:04:22;;;;;;;21.25;4.18;;;;;;;23.20;100.00;97890.75;5004579;28;20679;-92
2022/10/30 01:06:50;;;;;;;23.30;3.88;;;;;;;23.89;100.00;97884.66;5003624;28;20026;-92
2022/10/30 01:09:18;;;;;;;18.85;3.90;;;;;;;23.76;100.00;97892.72;5018770;28;20093;-92
2022/10/30 01:11:43;;;;;;;24.17;4.38;;;;;;;23.25;100.00;97891.25;5018359;28;20560;-91
2022/10/30 01:14:15;;;;;;;25.45;4.28;;;;;;;24.06;100.00;97873.53;5004481;28;20033;-92
2022/10/30 01:17:05;;;;;;;23.83;4.50;;;;;;;22.50;100.00;97871.84;5005877;28;20398;-92
2022/10/30 01:19:41;;;;;;;23.52;3.78;;;;;;;22.88;100.00;97868.22;5006382;28;20505;-92
2022/10/30 01:22:23;;;;;;;24.52;3.75;;;;;;;23.46;100.00;97878.97;5001915;28;20037;-92
2022/10/30 01:24:55;;;;;;;16.10;3.83;;;;;;;24.08;100.00;97874.28;4990611;28;20552;-91
2022/10/30 01:28:05;;;;;;;26.45;3.80;;;;;;;24.48;100.00;97876.44;4999979;28;20026;-93
2022/10/30 01:30:49;;;;;;;17.00;3.47;;;;;;;24.59;100.00;97877.38;5003302;28;20045;-93
2022/10/30 01:33:42;;;;;;;19.80;3.80;;;;;;;24.31;100.00;97877.75;5004631;28;20478;-93
2022/10/30 01:37:00;;;;;;;19.60;3.63;;;;;;;24.86;100.00;97876.97;5006712;28;20030;-92
2022/10/30 01:39:28;;;;;;;21.15;4.07;;;;;;;24.86;100.00;97869.00;4941957;28;20489;-91
2022/10/30 01:41:54;;;;;;;25.52;4.10;;;;;;;24.88;100.00;97872.34;4944269;28;20050;-91
2022/10/30 01:44:25;;;;;;;22.27;4.03;;;;;;;25.65;100.00;97865.13;4926289;28;20043;-92
2022/10/30 01:47:13;;;;;;;17.35;3.20;;;;;;;24.53;100.00;97866.22;4938616;28;20177;-91
2022/10/30 01:50:04;;;;;;;24.67;4.10;;;;;;;25.34;100.00;97870.38;4926963;29;20850;-92
2022/10/30 01:52:38;;;;;;;22.42;3.78;;;;;;;24.63;100.00;97858.34;4938551;28;20039;-92
2022/10/30 01:55:22;;;;;;;20.48;3.60;;;;;;;24.74;100.00;97856.66;4942321;28;20558;-91
2022/10/30 01:58:01;;;;;;;21.92;3.58;;;;;;;25.65;100.00;97857.09;4927407;28;20123;-93
2022/10/30 02:00:27;;;;;;;20.95;3.67;;;;;;;24.28;100.00;97854.03;4927525;28;20077;-92
2022/10/30 02:02:53;;;;;;;22.73;4.22;;;;;;;25.31;100.00;97860.78;4941269;28;20055;-93
2022/10/30 02:05:37;;;;;;;24.80;4.63;;;;;;;24.13;100.00;97853.44;4942204;28;20086;-92
2022/10/30 02:08:02;;;;;;;18.52;3.28;;;;;;;24.84;100.00;97850.44;4944769;28;20154;-91
2022/10/30 02:10:30;;;;;;;22.23;3.45;;;;;;;23.85;100.00;97849.41;4942844;28;20122;-92
2022/10/30 02:12:56;;;;;;;22.35;3.65;;;;;;;24.98;100.00;97854.66;4943306;28;20039;-92
2022/10/30 02:15:21;;;;;;;20.50;3.78;;;;;;;24.03;100.00;97849.81;4968579;28;20049;-92
2022/10/30 02:17:46;;;;;;;26.15;3.70;;;;;;;24.80;100.00;97854.34;4999964;28;20029;-92
2022/10/30 02:20:14;;;;;;;19.83;3.85;;;;;;;24.80;100.00;97849.00;5000510;28;20204;-93
2022/10/30 02:22:55;;;;;;;20.92;3.88;;;;;;;23.50;100.00;97851.16;5005859;28;20072;-93
2022/10/30 02:25:20;;;;;;;20.67;3.88;;;;;;;24.43;100.00;97829.81;5006762;28;20398;-93
2022/10/30 02:27:45;;;;;;;23.60;3.78;;;;;;;24.77;100.00;97845.72;5002907;28;20053;-92
2022/10/30 02:30:12;;;;;;;19.55;3.40;;;;;;;24.06;100.00;97840.72;5004662;28;20026;-92
2022/10/30 02:32:37;;;;;;;20.23;3.20;;;;;;;23.55;100.00;97841.97;4995425;28;20033;-91
2022/10/30 02:35:03;;;;;;;20.35;3.15;;;;;;;23.18;100.00;97846.47;5005021;28;20096;-93
2022/10/30 02:37:31;;;;;;;21.90;3.83;;;;;;;24.71;100.00;97842.59;5005821;28;20021;-93
2022/10/30 02:39:56;;;;;;;26.02;4.38;;;;;;;23.21;100.00;97849.88;5007863;28;20030;-92
2022/10/30 02:42:22;;;;;;;19.40;3.72;;;;;;;23.24;100.00;97845.16;5006356;28;20044;-92
2022/10/30 02:44:47;;;;;;;19.58;3.58;;;;;;;25.24;100.00;97840.09;5009826;28;20045;-92
2022/10/30 02:47:13;;;;;;;22.60;3.75;;;;;;;23.69;100.00;97845.28;5013326;28;20025;-92
2022/10/30 02:49:39;;;;;;;18.45;3.72;;;;;;;25.01;100.00;97841.03;5013623;28;20036;-92
2022/10/30 02:52:07;;;;;;;19.25;3.72;;;;;;;23.91;100.00;97832.13;5015606;28;20025;-92
2022/10/30 02:54:33;;;;;;;19.02;3.78;;;;;;;24.69;100.00;97839.22;5006096;28;20050;-92
2022/10/30 02:56:58;;;;;;;16.60;3.42;;;;;;;23.92;100.00;97837.31;5005763;28;20025;-92
2022/10/30 02:59:23;;;;;;;17.23;3.22;;;;;;;23.67;100.00;97843.69;5005519;28;20042;-93
2022/10/30 03:01:49;;;;;;;19.50;3.58;;;;;;;24.22;100.00;97837.69;4996815;28;20692;-91
2022/10/30 03:04:14;;;;;;;15.02;3.30;;;;;;;23.86;100.00;97835.13;4997049;28;20029;-91
2022/10/30 03:06:39;;;;;;;20.85;4.25;;;;;;;25.32;100.00;97832.28;5003125;28;20540;-91
2022/10/30 03:09:05;;;;;;;20.50;3.67;;;;;;;24.70;100.00;97837.38;4990447;28;20045;-92
2022/10/30 03:11:33;;;;;;;19.90;3.42;;;;;;;24.69;100.00;97841.00;5004428;28;20450;-93
2022/10/30 03:13:58;;;;;;;27.77;3.90;;;;;;;24.80;100.00;97833.00;5004681;28;20406;-92
2022/10/30 03:16:28;;;;;;;27.20;3.58;;;;;;;23.76;100.00;97834.13;5007106;28;20030;-92
2022/10/30 03:18:54;;;;;;;16.60;3.42;;;;;;;22.38;100.00;97827.56;5024356;28;20037;-92
2022/10/30 03:21:21;;;;;;;17.63;3.50;;;;;;;23.31;100.00;97826.94;5022079;28;20030;-92
2022/10/30 03:23:47;;;;;;;21.02;3.53;;;;;;;23.39;100.00;97824.53;5004387;28;20041;-92
2022/10/30 03:26:12;;;;;;;23.50;3.53;;;;;;;25.22;100.00;97838.41;5008595;28;20496;-92
2022/10/30 03:28:38;;;;;;;18.98;3.20;;;;;;;24.33;100.00;97843.84;5008180;28;20026;-92
2022/10/30 03:31:07;;;;;;;22.70;3.50;;;;;;;24.42;100.00;97841.44;5008958;28;20105;-93
2022/10/30 03:33:33;;;;;;;19.00;3.55;;;;;;;24.52;100.00;97837.03;5008256;28;20043;-92
2022/10/30 03:35:59;;;;;;;21.65;3.38;;;;;;;24.81;100.00;97839.16;5006968;28;20109;-92
2022/10/30 03:38:25;;;;;;;20.73;3.13;;;;;;;24.44;100.00;97837.66;5007409;28;20022;-92
2022/10/30 03:40:51;;;;;;;18.85;3.58;;;;;;;25.07;100.00;97826.34;5022452;28;20030;-93
2022/10/30 03:43:17;;;;;;;20.50;3.10;;;;;;;25.76;100.00;97827.66;5003165;28;20796;-92
2022/10/30 03:45:51;;;;;;;20.33;3.33;;;;;;;26.45;100.00;97825.28;5006981;28;20034;-93
2022/10/30 03:48:19;;;;;;;19.80;3.03;;;;;;;26.26;100.00;97815.38;5000156;28;20050;-92
2022/10/30 03:50:45;;;;;;;23.25;3.42;;;;;;;26.29;100.00;97815.97;5004541;28;20061;-93
2022/10/30 03:53:11;;;;;;;23.52;3.45;;;;;;;25.38;100.00;97827.28;5004011;28;20029;-93
2022/10/30 03:55:37;;;;;;;20.98;3.28;;;;;;;25.58;100.00;97816.75;5004624;28;20077;-92
2022/10/30 03:58:03;;;;;;;12.35;2.55;;;;;;;24.66;100.00;97831.47;5002447;28;20021;-93
2022/10/30 04:00:28;;;;;;;25.23;3.72;;;;;;;24.65;100.00;97823.59;5004017;28;20121;-93
2022/10/30 04:02:54;;;;;;;22.45;3.05;;;;;;;24.53;100.00;97822.75;5006311;28;20287;-92
2022/10/30 04:05:21;;;;;;;20.02;3.30;;;;;;;24.99;100.00;97828.81;5018552;28;20136;-93
2022/10/30 04:07:47;;;;;;;18.10;2.85;;;;;;;24.09;100.00;97820.03;5005640;28;20064;-92
2022/10/30 04:10:14;;;;;;;18.80;3.25;;;;;;;25.76;100.00;97813.47;5000439;28;20093;-91
2022/10/30 04:12:39;;;;;;;16.35;3.03;;;;;;;25.46;100.00;97813.28;5003087;28;20034;-91
2022/10/30 04:15:07;;;;;;;18.48;3.10;;;;;;;26.12;100.00;97806.75;5007601;28;20033;-92
2022/10/30 04:17:32;;;;;;;18.88;3.40;;;;;;;25.01;100.00;97818.84;4999942;28;20026;-92
2022/10/30 04:19:58;;;;;;;22.23;3.05;;;;;;;24.09;100.00;97816.50;5007432;28;20586;-93
2022/10/30 04:22:23;;;;;;;18.40;3.53;;;;;;;25.10;100.00;97815.41;5003923;28;20037;-91
2022/10/30 04:24:49;;;;;;;20.02;3.67;;;;;;;26.04;100.00;97820.78;5009080;28;20387;-92
2022/10/30 04:27:15;;;;;;;14.68;3.20;;;;;;;25.17;100.00;97800.56;5004440;28;20040;-92
2022/10/30 04:29:43;;;;;;;20.35;3.67;;;;;;;24.77;100.00;97811.91;4999969;28;20033;-92
2022/10/30 04:32:09;;;;;;;18.75;2.97;;;;;;;25.36;100.00;97801.72;5006256;28;20029;-91
2022/10/30 04:34:35;;;;;;;16.52;3.45;;;;;;;24.39;100.00;97807.88;5004068;28;20029;-91
2022/10/30 04:37:00;;;;;;;17.67;3.63;;;;;;;25.41;100.00;97804.81;5005269;28;20053;-93
2022/10/30 04:39:26;;;;;;;20.25;3.40;;;;;;;24.09;100.00;97811.19;5005780;28;20045;-93
2022/10/30 04:41:51;;;;;;;21.42;3.53;;;;;;;23.38;100.00;97817.50;5009748;28;20049;-90
2022/10/30 04:44:16;;;;;;;20.52;3.45;;;;;;;24.66;100.00;97809.28;5006961;28;20038;-92
2022/10/30 04:46:42;;;;;;;14.73;2.50;;;;;;;24.78;100.00;97810.94;5004820;28;20030;-92
2022/10/30 04:49:08;;;;;;;15.27;2.63;;;;;;;24.48;100.00;97809.81;5002185;28;20056;-93
2022/10/30 04:51:33;;;;;;;20.38;3.45;;;;;;;24.94;100.00;97807.00;4994828;28;20429;-92
2022/10/30 04:53:58;;;;;;;19.60;3.47;;;;;;;25.26;100.00;97800.78;5001848;28;20140;-91
2022/10/30 04:56:24;;;;;;;16.75;3.00;;;;;;;24.16;100.00;97796.41;5023348;28;20029;-91
2022/10/30 04:58:49;;;;;;;22.98;2.88;;;;;;;25.25;100.00;97783.06;5011793;28;20426;-92
2022/10/30 05:01:15;;;;;;;19.58;3.30;;;;;;;24.03;100.00;97780.56;5008271;28;20033;-91
2022/10/30 05:03:43;;;;;;;21.45;3.13;;;;;;;25.17;100.00;97776.56;5011660;28;20638;-92
2022/10/30 05:06:20;;;;;;;14.82;2.53;;;;;;;24.62;100.00;97776.72;5002129;28;20022;-92
2022/10/30 05:08:46;;;;;;;19.45;3.85;;;;;;;24.13;100.00;97797.47;5006427;28;20041;-92
2022/10/30 05:11:11;;;;;;;16.42;2.63;;;;;;;25.53;100.00;97787.75;5000306;28;20030;-92
2022/10/30 05:13:37;;;;;;;17.70;4.30;;;;;;;23.47;100.00;97811.50;5008876;28;20037;-93
2022/10/30 05:16:02;;;;;;;18.73;3.75;;;;;;;25.29;100.00;97801.38;5005232;28;20784;-91
2022/10/30 05:18:28;;;;;;;14.60;2.78;;;;;;;24.63;100.00;97793.53;5008656;28;20244;-93
2022/10/30 05:20:53;;;;;;;18.55;2.92;;;;;;;24.37;100.00;97796.50;5011445;28;20540;-91
2022/10/30 05:23:18;;;;;;;17.88;2.67;;;;;;;24.93;100.00;97768.81;5006583;28;20386;-91
2022/10/30 05:25:44;;;;;;;19.83;3.03;;;;;;;24.85;100.00;97780.13;5002401;28;20030;-92
2022/10/30 05:28:09;;;;;;;17.77;2.92;;;;;;;25.01;100.00;97765.50;5003617;28;20574;-92
2022/10/30 05:30:35;;;;;;;14.70;2.60;;;;;;;24.71;100.00;97785.75;5006851;28;20090;-93
2022/10/30 05:33:05;;;;;;;14.52;2.40;;;;;;;24.01;100.00;97777.19;4998878;28;20033;-91
2022/10/30 05:35:32;;;;;;;18.88;2.95;;;;;;;24.79;100.00;97780.63;5001343;28;20585;-92
2022/10/30 05:37:58;;;;;;;14.70;2.72;;;;;;;24.61;100.00;97796.34;5014653;28;20105;-92
2022/10/30 05:40:24;;;;;;;13.63;2.58;;;;;;;23.74;100.00;97802.31;4998604;28;20386;-92
2022/10/30 05:42:50;;;;;;;14.80;2.70;;;;;;;24.58;100.00;97801.91;5019602;28;20026;-90
2022/10/30 05:45:16;;;;;;;14.77;2.88;;;;;;;24.95;100.00;97798.84;5019934;28;20799;-92
2022/10/30 05:47:41;;;;;;;13.82;2.45;;;;;;;24.30;100.00;97796.16;5007858;28;20100;-91
2022/10/30 05:50:07;;;;;;;23.58;3.28;;;;;;;24.17;100.00;97769.63;4997079;28;20034;-92
2022/10/30 05:52:33;;;;;;;16.95;2.40;;;;;;;24.22;100.00;97769.28;5005717;28;20119;-91
2022/10/30 05:54:58;;;;;;;17.33;3.00;;;;;;;24.64;100.00;97785.41;5004408;28;20060;-92
2022/10/30 05:57:23;;;;;;;15.18;2.70;;;;;;;24.29;100.00;97785.63;5005206;28;20437;-92
2022/10/30 05:59:49;;;;;;;14.75;2.83;;;;;;;23.61;100.00;97780.31;5007016;28;20056;-92
2022/10/30 06:02:18;;;;;;;20.90;2.92;;;;;;;23.85;100.00;97785.50;4998641;28;20042;-91
2022/10/30 06:04:43;;;;;;;25.98;3.50;;;;;;;24.66;100.00;97788.81;5003487;28;20058;-92
2022/10/30 06:07:10;;;;;;;16.15;2.63;;;;;;;24.39;100.00;97781.22;5002642;28;20030;-92
2022/10/30 06:09:35;;;;;;;15.07;2.67;;;;;;;23.83;100.00;97793.63;5001882;28;20029;-91
2022/10/30 06:12:01;;;;;;;17.15;2.92;;;;;;;23.75;100.00;97787.22;5000157;28;20022;-92
2022/10/30 06:14:26;;;;;;;16.75;2.70;;;;;;;24.26;100.00;97786.72;5002668;28;20080;-90
2022/10/30 06:16:52;;;;;;;19.65;2.80;;;;;;;25.15;100.00;97794.53;4999145;28;20025;-92
2022/10/30 06:19:17;;;;;;;14.27;2.53;;;;;;;24.78;100.00;97792.28;5000527;28;20048;-94
2022/10/30 06:21:42;;;;;;;14.07;2.72;;;;;;;24.83;100.00;97803.41;5004979;28;20030;-92
2022/10/30 06:24:08;;;;;;;17.85;3.28;;;;;;;24.93;100.00;97808.81;5002973;28;20201;-92
2022/10/30 06:26:33;;;;;;;22.95;2.60;;;;;;;25.14;100.00;97808.84;5000100;28;20117;-92
2022/10/30 06:28:59;;;;;;;13.98;2.47;;;;;;;23.35;100.00;97807.97;5001243;28;20053;-92
2022/10/30 06:31:24;;;;;;;14.55;2.88;;;;;;;25.19;100.00;97792.44;5005995;28;20823;-93
2022/10/30 06:33:49;;;;;;;17.67;3.10;;;;;;;24.71;100.00;97807.09;5007453;28;20026;-93
2022/10/30 06:36:16;;;;;;;13.32;2.60;;;;;;;24.32;100.00;97817.34;5005651;28;21292;-93
2022/10/30 06:38:41;;;;;;;18.15;2.78;;;;;;;24.85;100.00;97798.78;5006882;28;20038;-93
2022/10/30 06:41:07;;;;;;;19.25;2.70;;;;;;;26.02;100.00;97798.69;4999528;28;20765;-92
2022/10/30 06:43:32;;;;;;;16.77;3.38;;;;;;;23.99;100.00;97814.59;4999157;28;20034;-93
2022/10/30 06:45:58;;;;;;;16.70;2.95;;;;;;;25.48;100.00;97824.69;5001652;28;20030;-91
2022/10/30 06:48:23;;;;;;;15.32;3.22;;;;;;;25.48;100.00;97819.34;5005766;28;20037;-91
2022/10/30 06:50:56;;;;;;;18.38;3.20;;;;;;;24.97;100.00;97818.25;4999561;28;20037;-91
2022/10/30 06:53:22;;;;;;;12.82;2.47;;;;;;;24.77;100.00;97819.91;5002311;28;20648;-92
2022/10/30 06:55:59;;;;;;;17.17;2.90;;;;;;;25.41;100.00;97820.84;5003705;28;20044;-92
2022/10/30 06:58:26;;;;;;;17.75;3.05;;;;;;;24.86;100.00;97823.66;5016926;28;20025;-92
2022/10/30 07:00:51;;;;;;;18.50;3.28;;;;;;;24.64;100.00;97820.06;5005984;28;20065;-93
2022/10/30 07:03:17;;;;;;;17.08;2.70;;;;;;;23.64;100.00;97827.97;5021090;28;20084;-92
2022/10/30 07:05:43;;;;;;;18.77;2.65;;;;;;;23.65;100.00;97841.16;5008349;28;20360;-94
2022/10/30 07:08:08;;;;;;;18.13;3.38;;;;;;;23.78;100.00;97829.56;5024807;28;20500;-93
2022/10/30 07:10:34;;;;;;;16.50;3.13;;;;;;;23.98;100.00;97836.88;5011330;28;20034;-94
2022/10/30 07:12:59;;;;;;;14.48;3.00;;;;;;;26.16;100.00;97826.03;5014659;28;20064;-94
2022/10/30 07:15:25;;;;;;;15.27;2.75;;;;;;;24.28;100.00;97845.19;5011160;28;20113;-93
2022/10/30 07:18:02;;;;;;;20.63;3.50;;;;;;;24.27;100.00;97836.34;5010553;28;20040;-93
2022/10/30 07:20:30;;;;;;;18.05;3.45;;;;;;;24.69;100.00;97825.00;5005830;28;20045;-93
2022/10/30 07:22:55;;;;;;;16.08;2.75;;;;;;;24.24;100.00;97828.59;5010745;28;20030;-93
2022/10/30 07:25:21;;;;;;;13.18;2.58;;;;;;;23.27;100.00;97826.34;5012079;28;20381;-92
2022/10/30 07:27:49;;;;;;;15.77;2.97;;;;;;;24.43;100.00;97829.81;5008886;28;20063;-93
2022/10/30 07:30:17;;;;;;;14.80;2.95;;;;;;;23.95;100.00;97821.13;5014654;28;20021;-93
2022/10/30 07:32:43;;;;;;;17.52;3.60;;;;;;;24.39;100.00;97821.19;5011652;28;20525;-93
2022/10/30 07:35:11;;;;;;;25.08;3.20;;;;;;;23.33;100.00;97809.88;5006106;28;20033;-93
2022/10/30 07:37:37;;;;;;;19.48;2.70;;;;;;;23.57;100.00;97805.47;5007736;28;20037;-94
2022/10/30 07:40:03;;;;;;;15.48;2.65;;;;;;;24.30;100.00;97803.28;5007731;28;20501;-93
2022/10/30 07:42:28;;;;;;;16.95;2.70;;;;;;;23.60;100.00;97787.41;5010245;28;20478;-93
2022/10/30 07:44:54;;;;;;;15.65;2.70;;;;;;;24.23;100.00;97789.63;5013460;28;20059;-92
2022/10/30 07:47:19;;;;;;;16.88;3.15;;;;;;;24.42;100.00;97799.63;5011679;28;20042;-93
2022/10/30 07:49:44;;;;;;;23.67;3.05;;;;;;;23.75;100.00;97798.69;5023561;28;20374;-94
2022/10/30 07:52:10;;;;;;;11.95;2.38;;;;;;;23.33;100.00;97801.06;5009054;28;20474;-93
2022/10/30 07:54:36;;;;;;;15.50;3.17;;;;;;;25.95;100.00;97799.34;5014410;28;20061;-93
2022/10/30 07:57:02;;;;;;;17.65;3.00;;;;;;;24.90;100.00;97797.56;5011375;28;20044;-92
2022/10/30 07:59:27;;;;;;;18.58;2.58;;;;;;;25.81;100.00;97809.41;5007613;28;20037;-92
2022/10/30 08:01:53;;;;;;;17.02;3.05;;;;;;;26.36;100.00;97803.72;5009518;28;20052;-92
2022/10/30 08:04:19;;;;;;;20.20;2.85;;;;;;;25.01;100.00;97810.84;5006425;28;20482;-93
2022/10/30 08:06:44;;;;;;;16.80;2.70;;;;;;;24.72;100.00;97808.78;5006480;28;20490;-94
2022/10/30 08:09:13;;;;;;;19.10;2.70;;;;;;;24.86;100.00;97810.31;5025131;28;20442;-93
2022/10/30 08:11:38;;;;;;;15.20;2.47;;;;;;;25.78;100.00;97795.50;5005740;28;20026;-93
2022/10/30 08:14:04;;;;;;;15.18;2.58;;;;;;;24.73;100.00;97821.13;5026108;28;20636;-92
2022/10/30 08:16:29;;;;;;;17.98;3.40;;;;;;;25.32;100.00;97824.28;5011943;28;20029;-93
2022/10/30 08:18:55;;;;;;;13.63;2.50;;;;;;;25.24;100.00;97834.75;5013759;28;20029;-93
2022/10/30 08:21:21;;;;;;;15.93;2.65;;;;;;;25.77;100.00;97833.84;5006842;28;20054;-93
2022/10/30 08:23:46;;;;;;;15.73;2.90;;;;;;;26.00;100.00;97835.38;5002532;28;20034;-94
2022/10/30 08:26:12;;;;;;;14.70;2.45;;;;;;;25.44;100.00;97841.97;5021316;28;20093;-94
2022/10/30 08:28:38;;;;;;;18.85;3.25;;;;;;;27.37;100.00;97846.34;5011980;28;20049;-95
2022/10/30 08:31:04;;;;;;;15.15;2.60;;;;;;;27.09;100.00;97845.38;5010419;28;20022;-95
2022/10/30 08:33:31;;;;;;;14.05;2.60;;;;;;;26.53;100.00;97833.47;5036866;22;20087;-93
2022/10/30 08:35:58;;;;;;;13.93;2.40;;;;;;;26.43;100.00;97832.56;5008228;28;20127;-93
2022/10/30 08:38:25;;;;;;;11.98;2.53;;;;;;;24.61;100.00;97833.66;5008129;28;20120;-92
2022/10/30 08:40:51;;;;;;;17.67;3.20;;;;;;;26.39;100.00;97837.38;5005049;28;20037;-93
2022/10/30 08:43:17;;;;;;;10.95;2.65;;;;;;;26.54;100.00;97841.34;5005303;28;20034;-93
2022/10/30 08:45:43;;;;;;;17.30;2.90;;;;;;;25.86;100.00;97833.03;5006819;28;20029;-93
2022/10/30 08:48:12;;;;;;;16.45;3.03;;;;;;;26.78;100.00;97834.78;5007065;28;20036;-93
2022/10/30 08:50:37;;;;;;;17.10;2.92;;;;;;;26.30;100.00;97838.16;5005236;28;20095;-93
2022/10/30 08:53:05;;;;;;;15.32;2.75;;;;;;;24.85;100.00;97837.94;5007467;28;20436;-93
2022/10/30 08:55:32;;;;;;;20.63;3.03;;;;;;;27.14;100.00;97818.16;5007054;28;20048;-92
2022/10/30 08:57:57;;;;;;;16.08;2.72;;;;;;;26.53;100.00;97825.44;5004140;28;20095;-93
2022/10/30 09:00:23;;;;;;;16.92;2.53;;;;;;;25.97;100.00;97829.44;5005016;28;21022;-93
2022/10/30 09:02:48;;;;;;;14.98;3.28;;;;;;;27.36;100.00;97830.44;5006026;28;20497;-93
2022/10/30 09:05:14;;;;;;;15.98;2.28;;;;;;;27.80;99.81;97820.03;5004878;28;20493;-93
2022/10/30 09:07:40;;;;;;;16.80;3.03;;;;;;;26.73;100.00;97815.63;5006149;28;20058;-93
2022/10/30 09:10:07;;;;;;;15.95;2.33;;;;;;;27.57;99.33;97816.84;5007164;28;20033;-93
2022/10/30 09:12:34;;;;;;;17.50;2.92;;;;;;;26.64;100.00;97813.75;5010058;28;20565;-94
2022/10/30 09:14:59;;;;;;;14.25;2.40;;;;;;;26.44;100.00;97815.56;5008164;28;20441;-92
2022/10/30 09:17:35;;;;;;;16.88;2.30;;;;;;;26.27;100.00;97795.69;5014498;28;20044;-96
2022/10/30 09:20:01;;;;;;;18.52;2.90;;;;;;;26.53;100.00;97806.72;4971177;28;20077;-95
2022/10/30 09:22:26;;;;;;;15.02;2.88;;;;;;;26.23;100.00;97803.13;4967164;28;20058;-92
2022/10/30 09:24:52;;;;;;;15.52;2.60;;;;;;;26.14;100.00;97804.78;4951511;28;20031;-93
2022/10/30 09:27:17;;;;;;;15.70;2.58;;;;;;;26.64;100.00;97817.28;4958638;28;20111;-92
2022/10/30 09:29:42;;;;;;;15.95;4.18;;;;;;;26.45;100.00;97826.09;4958746;28;20038;-93
2022/10/30 09:32:09;;;;;;;16.30;2.70;;;;;;;26.47;100.00;97825.97;4969737;28;20473;-93
2022/10/30 09:34:36;;;;;;;17.48;2.75;;;;;;;26.91;100.00;97819.28;4974708;28;20034;-93
2022/10/30 09:37:02;;;;;;;16.35;2.38;;;;;;;25.83;100.00;97833.31;4976789;28;20038;-93
2022/10/30 09:39:29;;;;;;;11.80;2.53;;;;;;;26.23;100.00;97841.41;4971590;28;20085;-94
2022/10/30 09:42:14;;;;;;;11.48;2.30;;;;;;;24.95;100.00;97833.53;4952118;28;20098;-93
2022/10/30 09:45:04;;;;;;;14.90;2.10;;;;;;;25.76;100.00;97826.81;4969708;28;20026;-92
2022/10/30 09:47:38;;;;;;;23.20;3.20;;;;;;;26.11;100.00;97812.22;4969684;28;20363;-92
2022/10/30 09:50:28;;;;;;;16.42;2.60;;;;;;;26.69;100.00;97796.31;4968139;28;20042;-93
2022/10/30 09:53:12;;;;;;;17.80;3.20;;;;;;;27.36;100.00;97806.34;4966113;28;20018;-92
2022/10/30 09:56:00;;;;;;;14.25;2.67;;;;;;;26.38;100.00;97806.25;4970704;28;20054;-93
2022/10/30 09:58:57;;;;;;;11.63;2.25;;;;;;;27.66;100.00;97805.28;4973311;28;20058;-91
2022/10/30 10:01:38;;;;;;;17.42;2.70;;;;;;;25.71;100.00;97805.84;4944843;28;20117;-92
2022/10/30 10:04:25;;;;;;;15.10;2.50;;;;;;;26.97;100.00;97807.19;4968217;28;20036;-93
2022/10/30 10:07:23;;;;;;;16.35;2.33;;;;;;;27.21;100.00;97793.38;4968067;28;20220;-93
2022/10/30 10:09:58;;;;;;;19.58;2.80;;;;;;;27.30;100.00;97806.88;4964606;28;20077;-93
2022/10/30 10:12:44;;;;;;;14.82;3.10;;;;;;;27.17;100.00;97801.81;4965544;28;20045;-93
2022/10/30 10:15:19;;;;;;;15.25;2.53;;;;;;;27.04;100.00;97794.09;4973071;28;20081;-91
2022/10/30 10:17:45;;;;;;;16.80;2.55;;;;;;;27.16;100.00;97797.47;4954137;28;20046;-93
2022/10/30 10:20:43;;;;;;;11.60;2.50;;;;;;;26.64;100.00;97792.34;4972245;28;20031;-92
2022/10/30 10:23:16;;;;;;;15.00;2.60;;;;;;;26.43;100.00;97790.66;4969341;28;20042;-93
2022/10/30 10:25:50;;;;;;;20.33;3.15;;;;;;;26.61;100.00;97793.50;4979949;28;20031;-92
2022/10/30 10:28:36;;;;;;;14.88;2.33;;;;;;;26.28;100.00;97805.38;4977296;28;20030;-94
2022/10/30 10:31:20;;;;;;;18.10;2.78;;;;;;;26.79;100.00;97807.03;4969647;28;20035;-92
2022/10/30 10:34:31;;;;;;;11.65;2.25;;;;;;;25.51;100.00;97802.22;4974505;28;20034;-95
2022/10/30 10:37:05;;;;;;;16.15;2.38;;;;;;;26.01;100.00;97802.38;4931431;28;20034;-93
2022/10/30 10:39:52;;;;;;;12.63;2.47;;;;;;;26.10;100.00;97806.03;4941736;28;20047;-93
2022/10/30 10:42:29;;;;;;;17.98;3.05;;;;;;;25.96;100.00;97809.91;4946557;28;20035;-92
2022/10/30 10:45:12;;;;;;;17.17;2.70;;;;;;;25.71;100.00;97816.53;4944358;28;20035;-93
2022/10/30 10:47:44;;;;;;;;;;;;;;;27.01;100.00;97821.13;4941792;28;21025;-94
2022/10/30 10:50:22;;;;;;;15.18;2.42;;;;;;;25.64;100.00;97815.38;4935866;29;20708;-93
2022/10/30 10:53:06;;;;;;;18.25;2.50;;;;;;;25.73;100.00;97819.91;4948571;28;20409;-93
2022/10/30 10:55:35;;;;;;;16.20;2.75;;;;;;;25.58;100.00;97803.41;4944114;28;20047;-92
2022/10/30 10:58:10;;;;;;;12.57;2.30;;;;;;;26.45;100.00;97802.06;4951765;28;20223;-93
2022/10/30 11:00:36;;;;;;;16.73;3.53;;;;;;;25.70;100.00;97807.66;4956317;28;20122;-94
2022/10/30 11:03:16;;;;;;;15.38;2.45;;;;;;;27.12;100.00;97804.94;4948637;28;20035;-92
2022/10/30 11:05:57;;;;;;;15.35;2.33;;;;;;;26.15;100.00;97811.84;4946020;28;20039;-92
2022/10/30 11:08:28;;;;;;;15.80;2.50;;;;;;;25.97;100.00;97814.28;4936602;28;20079;-93
2022/10/30 11:11:04;;;;;;;15.40;2.05;;;;;;;25.76;100.00;97808.94;4945620;28;20034;-93
2022/10/30 11:13:35;;;;;;;15.52;2.42;;;;;;;25.41;100.00;97804.00;4962341;28;20069;-94
2022/10/30 11:16:15;;;;;;;12.63;2.28;;;;;;;26.90;100.00;97814.94;4971423;28;20057;-93
2022/10/30 11:18:43;;;;;;;20.40;2.40;;;;;;;27.46;99.90;97817.88;4964231;28;20073;-93
2022/10/30 11:21:13;;;;;;;15.43;2.55;;;;;;;27.46;100.00;97822.38;4978625;28;21638;-94
2022/10/30 11:23:46;;;;;;;16.33;2.47;;;;;;;27.30;100.00;97807.72;4980935;28;20034;-93
2022/10/30 11:26:19;;;;;;;;;;;;;;;26.72;100.00;97811.25;4974208;28;20085;-93